sensor_id;sensor_type;location;lat;lon;timestamp;temperature;humidity
19397;DHT22;9834;48.076;11.878;2023-01-08T00:01:07;0.00;99.90
19397;DHT22;9834;48.076;11.878;2023-01-08T00:03:35;0.10;99.90
19397;DHT22;9834;48.076;11.878;2023-01-08T00:06:04;0.00;99.90
19397;DHT22;9834;48.076;11.878;2023-01-08T00:08:33;0.00;99.90
19397;DHT22;9834;48.076;11.878;2023-01-08T00:11:01;0.00;99.90
19397;DHT22;9834;48.076;11.878;2023-01-08T00:13:28;-0.10;99.90
19397;DHT22;9834;48.076;11.878;2023-01-08T00:15:55;-0.10;99.90
19397;DHT22;9834;48.076;11.878;2023-01-08T00:18:22;-0.10;99.90
19397;DHT22;9834;48.076;11.878;2023-01-08T00:20:51;-0.10;99.90
19397;DHT22;9834;48.076;11.878;2023-01-08T00:23:19;0.00;99.90
19397;DHT22;9834;48.076;11.878;2023-01-08T00:25:47;0.00;99.90
19397;DHT22;9834;48.076;11.878;2023-01-08T00:28:14;0.10;99.90
19397;DHT22;9834;48.076;11.878;2023-01-08T00:30:42;0.20;99.90
19397;DHT22;9834;48.076;11.878;2023-01-08T00:33:09;0.40;99.90
19397;DHT22;9834;48.076;11.878;2023-01-08T00:35:37;0.30;99.90
19397;DHT22;9834;48.076;11.878;2023-01-08T00:38:05;0.30;99.90
19397;DHT22;9834;48.076;11.878;2023-01-08T00:40:32;0.30;99.90
19397;DHT22;9834;48.076;11.878;2023-01-08T00:43:01;0.40;99.90
19397;DHT22;9834;48.076;11.878;2023-01-08T00:45:28;0.40;99.90
19397;DHT22;9834;48.076;11.878;2023-01-08T00:47:55;0.40;99.90
19397;DHT22;9834;48.076;11.878;2023-01-08T00:50:23;0.40;99.90
19397;DHT22;9834;48.076;11.878;2023-01-08T00:52:50;0.30;99.90
19397;DHT22;9834;48.076;11.878;2023-01-08T00:55:17;0.40;99.90
19397;DHT22;9834;48.076;11.878;2023-01-08T00:57:44;0.30;99.90
19397;DHT22;9834;48.076;11.878;2023-01-08T01:00:15;0.30;99.90
19397;DHT22;9834;48.076;11.878;2023-01-08T01:02:42;0.20;99.90
19397;DHT22;9834;48.076;11.878;2023-01-08T01:05:10;0.40;99.90
19397;DHT22;9834;48.076;11.878;2023-01-08T01:07:39;0.10;99.90
19397;DHT22;9834;48.076;11.878;2023-01-08T01:10:07;0.00;99.90
19397;DHT22;9834;48.076;11.878;2023-01-08T01:12:36;0.00;99.90
19397;DHT22;9834;48.076;11.878;2023-01-08T01:15:04;0.00;99.90
19397;DHT22;9834;48.076;11.878;2023-01-08T01:17:33;0.00;99.90
19397;DHT22;9834;48.076;11.878;2023-01-08T01:20:00;0.00;99.90
19397;DHT22;9834;48.076;11.878;2023-01-08T01:22:27;-0.10;99.90
19397;DHT22;9834;48.076;11.878;2023-01-08T01:24:54;0.20;99.90
19397;DHT22;9834;48.076;11.878;2023-01-08T01:27:23;-0.10;99.90
19397;DHT22;9834;48.076;11.878;2023-01-08T01:29:50;-0.10;99.90
19397;DHT22;9834;48.076;11.878;2023-01-08T01:32:18;-0.10;99.90
19397;DHT22;9834;48.076;11.878;2023-01-08T01:34:47;-0.10;99.90
19397;DHT22;9834;48.076;11.878;2023-01-08T01:37:14;-0.10;99.90
19397;DHT22;9834;48.076;11.878;2023-01-08T01:39:41;-0.10;99.90
19397;DHT22;9834;48.076;11.878;2023-01-08T01:42:11;-0.10;99.90
19397;DHT22;9834;48.076;11.878;2023-01-08T01:45:00;0.00;99.90
19397;DHT22;9834;48.076;11.878;2023-01-08T01:47:30;-0.10;99.90
19397;DHT22;9834;48.076;11.878;2023-01-08T01:50:06;0.00;99.90
19397;DHT22;9834;48.076;11.878;2023-01-08T01:52:38;-0.10;99.90
19397;DHT22;9834;48.076;11.878;2023-01-08T01:55:07;-0.10;99.90
19397;DHT22;9834;48.076;11.878;2023-01-08T01:57:36;-0.20;99.90
19397;DHT22;9834;48.076;11.878;2023-01-08T02:00:05;-0.20;99.90
19397;DHT22;9834;48.076;11.878;2023-01-08T02:02:33;-0.20;99.90
19397;DHT22;9834;48.076;11.878;2023-01-08T02:05:02;-0.20;99.90
19397;DHT22;9834;48.076;11.878;2023-01-08T02:07:33;-0.20;99.90
19397;DHT22;9834;48.076;11.878;2023-01-08T02:10:06;-0.20;99.90
19397;DHT22;9834;48.076;11.878;2023-01-08T02:12:38;-0.20;99.90
19397;DHT22;9834;48.076;11.878;2023-01-08T02:15:11;-0.10;99.90
19397;DHT22;9834;48.076;11.878;2023-01-08T02:17:46;-0.10;99.90
19397;DHT22;9834;48.076;11.878;2023-01-08T02:20:18;-0.10;99.90
19397;DHT22;9834;48.076;11.878;2023-01-08T02:23:13;-0.10;99.90
19397;DHT22;9834;48.076;11.878;2023-01-08T02:28:47;-0.10;99.90
19397;DHT22;9834;48.076;11.878;2023-01-08T02:31:15;-0.10;99.90
19397;DHT22;9834;48.076;11.878;2023-01-08T02:33:43;0.10;99.90
19397;DHT22;9834;48.076;11.878;2023-01-08T02:36:21;0.20;99.90
19397;DHT22;9834;48.076;11.878;2023-01-08T02:39:02;0.20;99.90
19397;DHT22;9834;48.076;11.878;2023-01-08T02:41:38;0.10;99.90
19397;DHT22;9834;48.076;11.878;2023-01-08T02:44:14;0.00;99.90
19397;DHT22;9834;48.076;11.878;2023-01-08T02:46:44;-0.10;99.90
19397;DHT22;9834;48.076;11.878;2023-01-08T02:49:13;-0.20;99.90
19397;DHT22;9834;48.076;11.878;2023-01-08T02:51:44;-0.30;99.90
19397;DHT22;9834;48.076;11.878;2023-01-08T02:54:17;-0.40;99.90
19397;DHT22;9834;48.076;11.878;2023-01-08T02:56:50;-0.50;99.90
19397;DHT22;9834;48.076;11.878;2023-01-08T02:59:18;-0.50;99.90
19397;DHT22;9834;48.076;11.878;2023-01-08T03:01:46;-0.60;99.90
19397;DHT22;9834;48.076;11.878;2023-01-08T03:04:17;-0.60;99.90
19397;DHT22;9834;48.076;11.878;2023-01-08T03:06:45;-0.70;99.90
19397;DHT22;9834;48.076;11.878;2023-01-08T03:09:12;-0.80;99.90
19397;DHT22;9834;48.076;11.878;2023-01-08T03:11:43;-0.50;99.90
19397;DHT22;9834;48.076;11.878;2023-01-08T03:14:19;-0.90;99.90
19397;DHT22;9834;48.076;11.878;2023-01-08T03:16:53;-0.90;99.90
19397;DHT22;9834;48.076;11.878;2023-01-08T03:19:24;-0.90;99.90
19397;DHT22;9834;48.076;11.878;2023-01-08T03:21:52;-0.90;99.90
19397;DHT22;9834;48.076;11.878;2023-01-08T03:24:23;-0.90;99.90
19397;DHT22;9834;48.076;11.878;2023-01-08T03:26:55;-1.00;99.90
19397;DHT22;9834;48.076;11.878;2023-01-08T03:29:25;-1.00;99.90
19397;DHT22;9834;48.076;11.878;2023-01-08T03:31:56;-1.00;99.90
19397;DHT22;9834;48.076;11.878;2023-01-08T03:34:24;-1.00;99.90
19397;DHT22;9834;48.076;11.878;2023-01-08T03:36:54;-1.00;99.90
19397;DHT22;9834;48.076;11.878;2023-01-08T03:39:26;-0.80;99.90
19397;DHT22;9834;48.076;11.878;2023-01-08T03:41:59;-1.10;99.90
19397;DHT22;9834;48.076;11.878;2023-01-08T03:44:28;-0.90;99.90
19397;DHT22;9834;48.076;11.878;2023-01-08T03:46:56;-1.10;99.90
19397;DHT22;9834;48.076;11.878;2023-01-08T03:49:25;-1.10;99.90
19397;DHT22;9834;48.076;11.878;2023-01-08T03:51:54;-1.20;99.90
19397;DHT22;9834;48.076;11.878;2023-01-08T03:54:23;-1.20;99.90
19397;DHT22;9834;48.076;11.878;2023-01-08T03:56:51;-1.30;99.90
19397;DHT22;9834;48.076;11.878;2023-01-08T03:59:18;-1.10;99.90
19397;DHT22;9834;48.076;11.878;2023-01-08T04:01:47;-1.20;99.90
19397;DHT22;9834;48.076;11.878;2023-01-08T04:04:14;-1.30;99.90
19397;DHT22;9834;48.076;11.878;2023-01-08T04:06:41;-1.30;99.90
19397;DHT22;9834;48.076;11.878;2023-01-08T04:09:08;-1.30;99.90
19397;DHT22;9834;48.076;11.878;2023-01-08T04:11:35;-1.30;99.90
19397;DHT22;9834;48.076;11.878;2023-01-08T04:14:02;-1.00;99.90
19397;DHT22;9834;48.076;11.878;2023-01-08T04:16:29;-1.40;99.90
19397;DHT22;9834;48.076;11.878;2023-01-08T04:19:00;-1.30;99.90
19397;DHT22;9834;48.076;11.878;2023-01-08T04:21:27;-1.40;99.90
19397;DHT22;9834;48.076;11.878;2023-01-08T04:23:54;-1.50;99.90
19397;DHT22;9834;48.076;11.878;2023-01-08T04:26:21;-1.40;99.90
19397;DHT22;9834;48.076;11.878;2023-01-08T04:28:48;-1.40;99.90
19397;DHT22;9834;48.076;11.878;2023-01-08T04:31:15;-1.40;99.90
19397;DHT22;9834;48.076;11.878;2023-01-08T04:33:42;-1.40;99.90
19397;DHT22;9834;48.076;11.878;2023-01-08T04:36:11;-1.40;99.90
19397;DHT22;9834;48.076;11.878;2023-01-08T04:38:38;-1.40;99.90
19397;DHT22;9834;48.076;11.878;2023-01-08T04:41:05;-1.40;99.90
19397;DHT22;9834;48.076;11.878;2023-01-08T04:43:32;-1.30;99.90
19397;DHT22;9834;48.076;11.878;2023-01-08T04:46:01;-1.30;99.90
19397;DHT22;9834;48.076;11.878;2023-01-08T04:48:29;-1.30;99.90
19397;DHT22;9834;48.076;11.878;2023-01-08T04:50:57;-1.20;99.90
19397;DHT22;9834;48.076;11.878;2023-01-08T04:53:27;-1.20;99.90
19397;DHT22;9834;48.076;11.878;2023-01-08T04:55:54;-1.10;99.90
19397;DHT22;9834;48.076;11.878;2023-01-08T04:58:21;-1.10;99.90
19397;DHT22;9834;48.076;11.878;2023-01-08T05:00:48;-1.10;99.90
19397;DHT22;9834;48.076;11.878;2023-01-08T05:03:15;-1.10;99.90
19397;DHT22;9834;48.076;11.878;2023-01-08T05:05:42;-0.80;99.90
19397;DHT22;9834;48.076;11.878;2023-01-08T05:08:09;-1.10;99.90
19397;DHT22;9834;48.076;11.878;2023-01-08T05:10:37;-1.10;99.90
19397;DHT22;9834;48.076;11.878;2023-01-08T05:13:04;-1.10;99.90
19397;DHT22;9834;48.076;11.878;2023-01-08T05:15:31;-1.20;99.90
19397;DHT22;9834;48.076;11.878;2023-01-08T05:17:59;-1.10;99.90
19397;DHT22;9834;48.076;11.878;2023-01-08T05:20:26;-1.20;99.90
19397;DHT22;9834;48.076;11.878;2023-01-08T05:22:54;-1.10;99.90
19397;DHT22;9834;48.076;11.878;2023-01-08T05:25:23;-1.10;99.90
19397;DHT22;9834;48.076;11.878;2023-01-08T05:27:52;-0.90;99.90
19397;DHT22;9834;48.076;11.878;2023-01-08T05:30:19;-1.00;99.90
19397;DHT22;9834;48.076;11.878;2023-01-08T05:32:45;-1.00;99.90
19397;DHT22;9834;48.076;11.878;2023-01-08T05:35:12;-1.00;99.90
19397;DHT22;9834;48.076;11.878;2023-01-08T05:37:39;-0.90;99.90
19397;DHT22;9834;48.076;11.878;2023-01-08T05:40:07;-1.00;99.90
19397;DHT22;9834;48.076;11.878;2023-01-08T05:42:36;-1.00;99.90
19397;DHT22;9834;48.076;11.878;2023-01-08T05:45:06;-1.00;99.90
19397;DHT22;9834;48.076;11.878;2023-01-08T05:47:34;-0.90;99.90
19397;DHT22;9834;48.076;11.878;2023-01-08T05:50:01;-0.90;99.90
19397;DHT22;9834;48.076;11.878;2023-01-08T05:52:28;-0.80;99.90
19397;DHT22;9834;48.076;11.878;2023-01-08T05:54:55;-0.80;99.90
19397;DHT22;9834;48.076;11.878;2023-01-08T05:57:24;-0.80;99.90
19397;DHT22;9834;48.076;11.878;2023-01-08T05:59:52;-0.80;99.90
19397;DHT22;9834;48.076;11.878;2023-01-08T06:02:20;-0.80;99.90
19397;DHT22;9834;48.076;11.878;2023-01-08T06:04:47;-0.80;99.90
19397;DHT22;9834;48.076;11.878;2023-01-08T06:07:14;-0.70;99.90
19397;DHT22;9834;48.076;11.878;2023-01-08T06:09:41;-0.60;99.90
19397;DHT22;9834;48.076;11.878;2023-01-08T06:12:07;-0.40;99.90
19397;DHT22;9834;48.076;11.878;2023-01-08T06:14:35;-0.50;99.90
19397;DHT22;9834;48.076;11.878;2023-01-08T06:17:01;-0.50;99.90
19397;DHT22;9834;48.076;11.878;2023-01-08T06:19:30;-0.50;99.90
19397;DHT22;9834;48.076;11.878;2023-01-08T06:21:57;-0.50;99.90
19397;DHT22;9834;48.076;11.878;2023-01-08T06:24:24;-0.50;99.90
19397;DHT22;9834;48.076;11.878;2023-01-08T06:26:51;-0.40;99.90
19397;DHT22;9834;48.076;11.878;2023-01-08T06:29:18;-0.40;99.90
19397;DHT22;9834;48.076;11.878;2023-01-08T06:31:45;-0.40;99.90
19397;DHT22;9834;48.076;11.878;2023-01-08T06:34:12;-0.40;99.90
19397;DHT22;9834;48.076;11.878;2023-01-08T06:36:40;-0.40;99.90
19397;DHT22;9834;48.076;11.878;2023-01-08T06:39:08;-0.40;99.90
19397;DHT22;9834;48.076;11.878;2023-01-08T06:41:35;-0.40;99.90
19397;DHT22;9834;48.076;11.878;2023-01-08T06:44:02;-0.30;99.90
19397;DHT22;9834;48.076;11.878;2023-01-08T06:46:29;-0.30;99.90
19397;DHT22;9834;48.076;11.878;2023-01-08T06:48:56;-0.30;99.90
19397;DHT22;9834;48.076;11.878;2023-01-08T06:51:23;-0.30;99.90
19397;DHT22;9834;48.076;11.878;2023-01-08T06:53:51;-0.20;99.90
19397;DHT22;9834;48.076;11.878;2023-01-08T06:56:18;-0.30;99.90
19397;DHT22;9834;48.076;11.878;2023-01-08T06:58:45;-0.30;99.90
19397;DHT22;9834;48.076;11.878;2023-01-08T07:01:13;-0.20;99.90
19397;DHT22;9834;48.076;11.878;2023-01-08T07:03:41;-0.30;99.90
19397;DHT22;9834;48.076;11.878;2023-01-08T07:06:13;-0.30;99.90
19397;DHT22;9834;48.076;11.878;2023-01-08T07:08:41;-0.30;99.90
19397;DHT22;9834;48.076;11.878;2023-01-08T07:11:09;-0.30;99.90
19397;DHT22;9834;48.076;11.878;2023-01-08T07:13:37;-0.30;99.90
19397;DHT22;9834;48.076;11.878;2023-01-08T07:16:04;-0.30;99.90
19397;DHT22;9834;48.076;11.878;2023-01-08T07:18:33;-0.20;99.90
19397;DHT22;9834;48.076;11.878;2023-01-08T07:21:00;-0.30;99.90
19397;DHT22;9834;48.076;11.878;2023-01-08T07:23:28;-0.30;99.90
19397;DHT22;9834;48.076;11.878;2023-01-08T07:25:58;-0.20;99.90
19397;DHT22;9834;48.076;11.878;2023-01-08T07:28:26;-0.20;99.90
19397;DHT22;9834;48.076;11.878;2023-01-08T07:30:54;-0.20;99.90
19397;DHT22;9834;48.076;11.878;2023-01-08T07:33:21;-0.10;99.90
19397;DHT22;9834;48.076;11.878;2023-01-08T07:35:51;-0.10;99.90
19397;DHT22;9834;48.076;11.878;2023-01-08T07:38:18;0.10;99.90
19397;DHT22;9834;48.076;11.878;2023-01-08T07:40:45;0.10;99.90
19397;DHT22;9834;48.076;11.878;2023-01-08T07:43:12;0.00;99.90
19397;DHT22;9834;48.076;11.878;2023-01-08T07:45:41;0.10;99.90
19397;DHT22;9834;48.076;11.878;2023-01-08T07:48:08;0.20;99.90
19397;DHT22;9834;48.076;11.878;2023-01-08T07:50:41;0.20;99.90
19397;DHT22;9834;48.076;11.878;2023-01-08T07:53:08;0.30;99.90
19397;DHT22;9834;48.076;11.878;2023-01-08T07:55:35;0.30;99.90
19397;DHT22;9834;48.076;11.878;2023-01-08T07:58:07;0.50;99.90
19397;DHT22;9834;48.076;11.878;2023-01-08T08:00:34;0.40;99.90
19397;DHT22;9834;48.076;11.878;2023-01-08T08:03:04;0.50;99.90
19397;DHT22;9834;48.076;11.878;2023-01-08T08:05:32;0.60;99.90
19397;DHT22;9834;48.076;11.878;2023-01-08T08:08:00;0.70;99.90
19397;DHT22;9834;48.076;11.878;2023-01-08T08:10:27;0.70;99.90
19397;DHT22;9834;48.076;11.878;2023-01-08T08:12:54;0.70;99.90
19397;DHT22;9834;48.076;11.878;2023-01-08T08:15:21;0.80;99.90
19397;DHT22;9834;48.076;11.878;2023-01-08T08:17:48;0.90;99.90
19397;DHT22;9834;48.076;11.878;2023-01-08T08:20:17;0.90;99.90
19397;DHT22;9834;48.076;11.878;2023-01-08T08:22:44;1.00;99.90
19397;DHT22;9834;48.076;11.878;2023-01-08T08:25:11;1.10;99.90
19397;DHT22;9834;48.076;11.878;2023-01-08T08:27:40;1.30;99.90
19397;DHT22;9834;48.076;11.878;2023-01-08T08:30:08;1.30;99.90
19397;DHT22;9834;48.076;11.878;2023-01-08T08:32:35;1.30;99.90
19397;DHT22;9834;48.076;11.878;2023-01-08T08:35:03;1.60;99.90
19397;DHT22;9834;48.076;11.878;2023-01-08T08:37:32;1.70;99.90
19397;DHT22;9834;48.076;11.878;2023-01-08T08:39:59;1.80;99.90
19397;DHT22;9834;48.076;11.878;2023-01-08T08:42:26;1.90;99.90
19397;DHT22;9834;48.076;11.878;2023-01-08T08:44:53;2.10;99.90
19397;DHT22;9834;48.076;11.878;2023-01-08T08:47:19;2.10;99.90
19397;DHT22;9834;48.076;11.878;2023-01-08T08:49:46;2.30;99.90
19397;DHT22;9834;48.076;11.878;2023-01-08T08:52:13;2.50;99.90
19397;DHT22;9834;48.076;11.878;2023-01-08T08:54:42;2.50;99.90
19397;DHT22;9834;48.076;11.878;2023-01-08T08:57:09;2.60;99.90
19397;DHT22;9834;48.076;11.878;2023-01-08T08:59:36;2.70;99.90
19397;DHT22;9834;48.076;11.878;2023-01-08T09:02:04;2.80;99.90
19397;DHT22;9834;48.076;11.878;2023-01-08T09:04:32;3.00;99.90
19397;DHT22;9834;48.076;11.878;2023-01-08T09:06:59;2.90;99.90
19397;DHT22;9834;48.076;11.878;2023-01-08T09:09:27;3.00;99.90
19397;DHT22;9834;48.076;11.878;2023-01-08T09:11:56;3.00;99.90
19397;DHT22;9834;48.076;11.878;2023-01-08T09:14:24;2.90;99.90
19397;DHT22;9834;48.076;11.878;2023-01-08T09:16:51;3.00;99.90
19397;DHT22;9834;48.076;11.878;2023-01-08T09:19:18;3.00;99.90
19397;DHT22;9834;48.076;11.878;2023-01-08T09:21:45;3.10;99.90
19397;DHT22;9834;48.076;11.878;2023-01-08T09:24:12;3.20;99.90
19397;DHT22;9834;48.076;11.878;2023-01-08T09:26:39;3.30;99.90
19397;DHT22;9834;48.076;11.878;2023-01-08T09:29:08;3.50;99.90
19397;DHT22;9834;48.076;11.878;2023-01-08T09:31:35;3.70;99.90
19397;DHT22;9834;48.076;11.878;2023-01-08T09:34:02;3.90;99.90
19397;DHT22;9834;48.076;11.878;2023-01-08T09:36:29;4.10;99.90
19397;DHT22;9834;48.076;11.878;2023-01-08T09:38:56;4.40;99.90
19397;DHT22;9834;48.076;11.878;2023-01-08T09:41:26;4.60;99.90
19397;DHT22;9834;48.076;11.878;2023-01-08T09:43:55;4.80;99.90
19397;DHT22;9834;48.076;11.878;2023-01-08T09:46:26;4.90;99.90
19397;DHT22;9834;48.076;11.878;2023-01-08T09:48:55;5.00;99.90
19397;DHT22;9834;48.076;11.878;2023-01-08T09:51:26;5.20;99.90
19397;DHT22;9834;48.076;11.878;2023-01-08T09:53:57;5.10;99.90
19397;DHT22;9834;48.076;11.878;2023-01-08T09:56:25;5.20;99.90
19397;DHT22;9834;48.076;11.878;2023-01-08T09:58:54;5.30;99.90
19397;DHT22;9834;48.076;11.878;2023-01-08T10:01:25;5.40;99.90
19397;DHT22;9834;48.076;11.878;2023-01-08T10:03:57;5.50;99.90
19397;DHT22;9834;48.076;11.878;2023-01-08T10:06:25;5.60;99.90
19397;DHT22;9834;48.076;11.878;2023-01-08T10:08:52;5.90;99.90
19397;DHT22;9834;48.076;11.878;2023-01-08T10:11:19;5.60;99.90
19397;DHT22;9834;48.076;11.878;2023-01-08T10:13:51;5.70;99.90
19397;DHT22;9834;48.076;11.878;2023-01-08T10:16:27;5.60;99.90
19397;DHT22;9834;48.076;11.878;2023-01-08T10:18:56;5.60;99.90
19397;DHT22;9834;48.076;11.878;2023-01-08T10:21:27;5.60;99.90
19397;DHT22;9834;48.076;11.878;2023-01-08T10:23:55;5.80;99.90
19397;DHT22;9834;48.076;11.878;2023-01-08T10:26:27;6.00;99.90
19397;DHT22;9834;48.076;11.878;2023-01-08T10:29:08;6.10;99.90
19397;DHT22;9834;48.076;11.878;2023-01-08T10:31:49;6.20;99.90
19397;DHT22;9834;48.076;11.878;2023-01-08T10:34:25;6.40;99.90
19397;DHT22;9834;48.076;11.878;2023-01-08T10:36:53;6.50;99.90
19397;DHT22;9834;48.076;11.878;2023-01-08T10:39:22;6.70;99.90
19397;DHT22;9834;48.076;11.878;2023-01-08T10:41:53;6.90;99.90
19397;DHT22;9834;48.076;11.878;2023-01-08T10:44:22;7.00;99.90
19397;DHT22;9834;48.076;11.878;2023-01-08T10:46:54;7.10;99.90
19397;DHT22;9834;48.076;11.878;2023-01-08T10:49:28;7.30;99.90
19397;DHT22;9834;48.076;11.878;2023-01-08T10:51:58;7.40;99.90
19397;DHT22;9834;48.076;11.878;2023-01-08T10:54:33;7.50;99.90
19397;DHT22;9834;48.076;11.878;2023-01-08T10:57:00;7.40;99.90
19397;DHT22;9834;48.076;11.878;2023-01-08T10:59:27;7.50;99.90
19397;DHT22;9834;48.076;11.878;2023-01-08T11:01:56;7.50;99.90
19397;DHT22;9834;48.076;11.878;2023-01-08T11:04:28;7.70;99.90
19397;DHT22;9834;48.076;11.878;2023-01-08T11:06:59;7.90;99.90
19397;DHT22;9834;48.076;11.878;2023-01-08T11:09:30;8.20;99.90
19397;DHT22;9834;48.076;11.878;2023-01-08T11:11:58;8.50;99.90
19397;DHT22;9834;48.076;11.878;2023-01-08T11:14:28;8.90;99.90
19397;DHT22;9834;48.076;11.878;2023-01-08T11:16:58;9.20;99.90
19397;DHT22;9834;48.076;11.878;2023-01-08T11:19:26;9.30;99.90
19397;DHT22;9834;48.076;11.878;2023-01-08T11:21:56;9.30;99.90
19397;DHT22;9834;48.076;11.878;2023-01-08T11:24:26;9.30;99.90
19397;DHT22;9834;48.076;11.878;2023-01-08T11:26:56;9.30;99.90
19397;DHT22;9834;48.076;11.878;2023-01-08T11:29:30;9.20;99.90
19397;DHT22;9834;48.076;11.878;2023-01-08T11:32:16;9.00;99.90
19397;DHT22;9834;48.076;11.878;2023-01-08T11:34:53;8.90;99.90
19397;DHT22;9834;48.076;11.878;2023-01-08T11:37:22;8.90;99.90
19397;DHT22;9834;48.076;11.878;2023-01-08T11:39:50;8.90;99.90
19397;DHT22;9834;48.076;11.878;2023-01-08T11:42:35;9.00;99.90
19397;DHT22;9834;48.076;11.878;2023-01-08T11:45:17;9.10;99.90
19397;DHT22;9834;48.076;11.878;2023-01-08T11:48:01;9.10;99.90
19397;DHT22;9834;48.076;11.878;2023-01-08T11:50:36;9.10;99.90
19397;DHT22;9834;48.076;11.878;2023-01-08T11:53:16;9.10;99.90
19397;DHT22;9834;48.076;11.878;2023-01-08T11:55:55;8.90;99.90
19397;DHT22;9834;48.076;11.878;2023-01-08T11:58:32;9.10;99.90
19397;DHT22;9834;48.076;11.878;2023-01-08T12:01:36;9.10;99.90
19397;DHT22;9834;48.076;11.878;2023-01-08T12:04:26;9.10;99.90
19397;DHT22;9834;48.076;11.878;2023-01-08T12:07:02;9.20;99.90
19397;DHT22;9834;48.076;11.878;2023-01-08T12:09:38;9.10;99.90
19397;DHT22;9834;48.076;11.878;2023-01-08T12:12:17;9.10;99.90
19397;DHT22;9834;48.076;11.878;2023-01-08T12:14:53;9.00;99.90
19397;DHT22;9834;48.076;11.878;2023-01-08T12:20:36;9.00;99.90
19397;DHT22;9834;48.076;11.878;2023-01-08T12:23:12;9.10;99.90
19397;DHT22;9834;48.076;11.878;2023-01-08T12:26:01;9.20;99.90
19397;DHT22;9834;48.076;11.878;2023-01-08T12:28:54;9.20;99.90
19397;DHT22;9834;48.076;11.878;2023-01-08T12:34:18;9.00;99.90
19397;DHT22;9834;48.076;11.878;2023-01-08T12:36:50;8.90;99.90
19397;DHT22;9834;48.076;11.878;2023-01-08T12:39:22;8.60;99.90
19397;DHT22;9834;48.076;11.878;2023-01-08T12:41:57;8.40;99.90
19397;DHT22;9834;48.076;11.878;2023-01-08T12:44:28;8.30;99.90
19397;DHT22;9834;48.076;11.878;2023-01-08T12:46:57;8.30;99.90
19397;DHT22;9834;48.076;11.878;2023-01-08T12:49:32;8.10;99.90
19397;DHT22;9834;48.076;11.878;2023-01-08T12:52:08;8.10;99.90
19397;DHT22;9834;48.076;11.878;2023-01-08T12:54:44;7.90;99.90
19397;DHT22;9834;48.076;11.878;2023-01-08T12:57:18;7.90;99.90
19397;DHT22;9834;48.076;11.878;2023-01-08T12:59:55;7.80;99.90
19397;DHT22;9834;48.076;11.878;2023-01-08T13:02:33;7.90;99.90
19397;DHT22;9834;48.076;11.878;2023-01-08T13:05:13;7.90;99.90
19397;DHT22;9834;48.076;11.878;2023-01-08T13:07:57;8.00;99.90
19397;DHT22;9834;48.076;11.878;2023-01-08T13:10:33;8.00;99.90
19397;DHT22;9834;48.076;11.878;2023-01-08T13:13:01;8.00;99.90
19397;DHT22;9834;48.076;11.878;2023-01-08T13:15:30;8.00;99.90
19397;DHT22;9834;48.076;11.878;2023-01-08T13:18:01;8.00;99.90
19397;DHT22;9834;48.076;11.878;2023-01-08T13:20:31;8.00;99.90
19397;DHT22;9834;48.076;11.878;2023-01-08T13:23:01;7.90;99.90
19397;DHT22;9834;48.076;11.878;2023-01-08T13:25:32;7.90;99.90
19397;DHT22;9834;48.076;11.878;2023-01-08T13:28:00;7.90;99.90
19397;DHT22;9834;48.076;11.878;2023-01-08T13:30:38;7.80;99.90
19397;DHT22;9834;48.076;11.878;2023-01-08T13:33:37;7.70;99.90
19397;DHT22;9834;48.076;11.878;2023-01-08T13:36:20;7.60;99.90
19397;DHT22;9834;48.076;11.878;2023-01-08T13:39:01;7.50;99.90
19397;DHT22;9834;48.076;11.878;2023-01-08T13:41:31;7.40;99.90
19397;DHT22;9834;48.076;11.878;2023-01-08T13:44:01;7.40;99.90
19397;DHT22;9834;48.076;11.878;2023-01-08T13:46:30;7.30;99.90
19397;DHT22;9834;48.076;11.878;2023-01-08T13:49:00;7.30;99.90
19397;DHT22;9834;48.076;11.878;2023-01-08T13:51:38;7.20;99.90
19397;DHT22;9834;48.076;11.878;2023-01-08T13:54:19;7.10;99.90
19397;DHT22;9834;48.076;11.878;2023-01-08T13:56:50;7.00;99.90
19397;DHT22;9834;48.076;11.878;2023-01-08T13:59:26;7.00;99.90
19397;DHT22;9834;48.076;11.878;2023-01-08T14:01:56;6.90;99.90
19397;DHT22;9834;48.076;11.878;2023-01-08T14:04:24;6.80;99.90
19397;DHT22;9834;48.076;11.878;2023-01-08T14:06:52;6.80;99.90
19397;DHT22;9834;48.076;11.878;2023-01-08T14:09:23;6.70;99.90
19397;DHT22;9834;48.076;11.878;2023-01-08T14:11:51;6.80;99.90
19397;DHT22;9834;48.076;11.878;2023-01-08T14:14:21;6.70;99.90
19397;DHT22;9834;48.076;11.878;2023-01-08T14:16:50;6.70;99.90
19397;DHT22;9834;48.076;11.878;2023-01-08T14:19:20;6.80;99.90
19397;DHT22;9834;48.076;11.878;2023-01-08T14:21:48;6.70;99.90
19397;DHT22;9834;48.076;11.878;2023-01-08T14:24:17;6.70;99.90
19397;DHT22;9834;48.076;11.878;2023-01-08T14:26:51;6.70;99.90
19397;DHT22;9834;48.076;11.878;2023-01-08T14:29:20;6.70;99.90
19397;DHT22;9834;48.076;11.878;2023-01-08T14:31:49;6.70;99.90
19397;DHT22;9834;48.076;11.878;2023-01-08T14:34:18;6.60;99.90
19397;DHT22;9834;48.076;11.878;2023-01-08T14:36:45;6.60;99.90
19397;DHT22;9834;48.076;11.878;2023-01-08T14:39:21;6.50;99.90
19397;DHT22;9834;48.076;11.878;2023-01-08T14:41:50;6.60;99.90
19397;DHT22;9834;48.076;11.878;2023-01-08T14:44:36;6.50;99.90
19397;DHT22;9834;48.076;11.878;2023-01-08T14:47:03;6.50;99.90
19397;DHT22;9834;48.076;11.878;2023-01-08T14:49:32;6.40;99.90
19397;DHT22;9834;48.076;11.878;2023-01-08T14:52:09;6.40;99.90
19397;DHT22;9834;48.076;11.878;2023-01-08T14:54:37;6.30;99.90
19397;DHT22;9834;48.076;11.878;2023-01-08T14:57:06;6.30;99.90
19397;DHT22;9834;48.076;11.878;2023-01-08T14:59:34;6.40;99.90
19397;DHT22;9834;48.076;11.878;2023-01-08T15:02:03;6.40;99.90
19397;DHT22;9834;48.076;11.878;2023-01-08T15:04:31;6.40;99.90
19397;DHT22;9834;48.076;11.878;2023-01-08T15:07:06;6.40;99.90
19397;DHT22;9834;48.076;11.878;2023-01-08T15:09:34;6.30;99.90
19397;DHT22;9834;48.076;11.878;2023-01-08T15:12:05;6.30;99.90
19397;DHT22;9834;48.076;11.878;2023-01-08T15:14:34;6.30;99.90
19397;DHT22;9834;48.076;11.878;2023-01-08T15:17:08;6.30;99.90
19397;DHT22;9834;48.076;11.878;2023-01-08T15:19:39;6.20;99.90
19397;DHT22;9834;48.076;11.878;2023-01-08T15:22:13;6.10;99.90
19397;DHT22;9834;48.076;11.878;2023-01-08T15:24:41;6.00;99.90
19397;DHT22;9834;48.076;11.878;2023-01-08T15:27:17;6.00;99.90
19397;DHT22;9834;48.076;11.878;2023-01-08T15:29:48;5.90;99.90
19397;DHT22;9834;48.076;11.878;2023-01-08T15:32:21;5.90;99.90
19397;DHT22;9834;48.076;11.878;2023-01-08T15:34:48;5.90;99.90
19397;DHT22;9834;48.076;11.878;2023-01-08T15:37:15;5.80;99.90
19397;DHT22;9834;48.076;11.878;2023-01-08T15:39:42;5.80;99.90
19397;DHT22;9834;48.076;11.878;2023-01-08T15:42:18;5.80;99.90
19397;DHT22;9834;48.076;11.878;2023-01-08T15:45:08;5.80;99.90
19397;DHT22;9834;48.076;11.878;2023-01-08T15:47:36;5.70;99.90
19397;DHT22;9834;48.076;11.878;2023-01-08T15:50:04;5.70;99.90
19397;DHT22;9834;48.076;11.878;2023-01-08T15:52:32;5.60;99.90
19397;DHT22;9834;48.076;11.878;2023-01-08T15:55:00;5.60;99.90
19397;DHT22;9834;48.076;11.878;2023-01-08T15:57:27;5.60;99.90
19397;DHT22;9834;48.076;11.878;2023-01-08T15:59:57;5.60;99.90
19397;DHT22;9834;48.076;11.878;2023-01-08T16:02:26;5.60;99.90
19397;DHT22;9834;48.076;11.878;2023-01-08T16:04:54;5.60;99.90
19397;DHT22;9834;48.076;11.878;2023-01-08T16:07:21;5.50;99.90